createdAt,value
2023-01-20T00:01:55.369Z,8.77
2023-01-20T00:04:42.502Z,9.37
2023-01-20T00:07:29.741Z,9.00
2023-01-20T00:10:17.880Z,13.23
2023-01-20T00:13:06.185Z,14.57
2023-01-20T00:15:53.366Z,17.17
2023-01-20T00:18:41.465Z,17.33
2023-01-20T00:21:29.056Z,18.13
2023-01-20T00:24:16.572Z,18.77
2023-01-20T00:27:03.632Z,19.17
2023-01-20T00:29:52.553Z,17.27
2023-01-20T00:32:44.735Z,22.07
2023-01-20T00:35:31.981Z,18.63
2023-01-20T00:38:19.085Z,15.50
2023-01-20T00:41:06.993Z,13.83
2023-01-20T00:43:54.484Z,16.60
2023-01-20T00:46:42.932Z,14.73
2023-01-20T00:49:30.087Z,14.60
2023-01-20T00:52:18.766Z,12.73
2023-01-20T00:55:07.047Z,14.53
2023-01-20T00:57:54.193Z,13.80
2023-01-20T01:00:41.541Z,14.40
2023-01-20T01:03:30.691Z,11.40
2023-01-20T01:06:19.063Z,14.43
2023-01-20T01:09:06.453Z,12.53
2023-01-20T01:11:53.465Z,13.07
2023-01-20T01:14:40.559Z,11.87
2023-01-20T01:17:27.669Z,13.33
2023-01-20T01:20:16.232Z,12.40
2023-01-20T01:23:03.586Z,11.87
2023-01-20T01:25:50.736Z,11.83
2023-01-20T01:28:38.297Z,22.50
2023-01-20T01:31:25.515Z,13.17
2023-01-20T01:34:12.617Z,15.00
2023-01-20T01:37:01.406Z,13.73
2023-01-20T01:39:48.570Z,17.00
2023-01-20T01:42:35.536Z,22.80
2023-01-20T01:45:28.899Z,18.40
2023-01-20T01:48:16.483Z,17.63
2023-01-20T01:51:09.229Z,18.43
2023-01-20T01:54:03.738Z,15.60
2023-01-20T01:56:52.359Z,15.37
2023-01-20T01:59:40.408Z,15.60
2023-01-20T02:02:28.019Z,14.33
2023-01-20T02:05:17.098Z,15.37
2023-01-20T02:08:05.596Z,14.23
2023-01-20T02:10:54.381Z,13.57
2023-01-20T02:13:42.178Z,13.00
2023-01-20T02:16:41.670Z,15.77
2023-01-20T02:20:25.503Z,13.90
2023-01-20T02:23:33.934Z,16.30
2023-01-20T02:26:47.218Z,12.57
2023-01-20T02:30:22.802Z,15.50
2023-01-20T02:33:15.077Z,17.27
2023-01-20T02:36:08.929Z,16.43
2023-01-20T02:39:02.092Z,15.50
2023-01-20T02:41:59.044Z,16.70
2023-01-20T02:44:54.943Z,16.37
2023-01-20T02:47:51.741Z,16.43
2023-01-20T02:51:04.377Z,16.33
2023-01-20T02:53:56.449Z,14.53
2023-01-20T02:56:44.515Z,19.43
2023-01-20T02:59:36.110Z,16.90
2023-01-20T03:02:27.538Z,15.20
2023-01-20T03:05:21.651Z,14.80
2023-01-20T03:08:14.094Z,15.63
2023-01-20T03:11:06.593Z,14.17
2023-01-20T03:14:00.838Z,16.57
2023-01-20T03:16:50.397Z,17.43
2023-01-20T03:19:37.606Z,14.53
2023-01-20T03:22:25.214Z,14.87
2023-01-20T03:25:16.348Z,14.63
2023-01-20T03:28:04.573Z,14.97
2023-01-20T03:30:52.122Z,17.17
2023-01-20T03:33:39.764Z,15.90
2023-01-20T03:36:30.743Z,15.37
2023-01-20T03:39:18.526Z,15.40
2023-01-20T03:42:13.967Z,13.93
2023-01-20T03:45:11.955Z,12.53
2023-01-20T03:48:07.908Z,11.30
2023-01-20T03:50:58.701Z,12.77
2023-01-20T03:53:50.416Z,13.80
2023-01-20T03:56:43.759Z,15.13
2023-01-20T03:59:36.250Z,14.10
2023-01-20T04:02:25.255Z,11.97
2023-01-20T04:05:13.197Z,12.30
2023-01-20T04:08:05.328Z,13.27
2023-01-20T04:10:53.760Z,13.70
2023-01-20T04:13:40.674Z,12.40
2023-01-20T04:16:29.251Z,13.93
2023-01-20T04:19:16.470Z,13.70
2023-01-20T04:22:09.355Z,14.97
2023-01-20T04:25:02.972Z,15.73
2023-01-20T04:27:50.714Z,14.70
2023-01-20T04:30:38.017Z,14.83
2023-01-20T04:33:26.546Z,13.23
2023-01-20T04:36:13.880Z,12.87
2023-01-20T04:39:00.942Z,12.50
2023-01-20T04:41:48.203Z,11.73
2023-01-20T04:44:35.638Z,11.87
2023-01-20T04:47:22.802Z,12.33
2023-01-20T04:50:14.749Z,12.10
2023-01-20T04:53:01.984Z,14.83
2023-01-20T04:55:48.995Z,15.63
2023-01-20T04:58:36.210Z,15.40
2023-01-20T05:01:23.684Z,16.60
2023-01-20T05:04:10.911Z,17.20
2023-01-20T05:06:59.302Z,19.07
2023-01-20T05:09:46.790Z,19.53
2023-01-20T05:12:33.972Z,20.50
2023-01-20T05:15:20.966Z,19.83
2023-01-20T05:18:08.103Z,20.73
2023-01-20T05:20:55.307Z,15.30
2023-01-20T05:23:43.819Z,16.43
2023-01-20T05:26:31.215Z,15.07
2023-01-20T05:29:18.417Z,14.37
2023-01-20T05:32:06.314Z,11.40
2023-01-20T05:34:53.598Z,13.03
2023-01-20T05:37:40.977Z,9.03
2023-01-20T05:40:29.375Z,9.37
2023-01-20T05:43:16.402Z,9.93
2023-01-20T05:46:04.025Z,11.23
2023-01-20T05:48:51.303Z,8.90
2023-01-20T05:51:38.532Z,11.17
2023-01-20T05:54:26.236Z,10.13
2023-01-20T05:57:18.275Z,11.10
2023-01-20T06:00:08.739Z,10.60
2023-01-20T06:02:56.340Z,9.93
2023-01-20T06:05:43.375Z,17.40
2023-01-20T06:08:30.932Z,12.87
2023-01-20T06:11:18.279Z,19.00
2023-01-20T06:14:06.847Z,17.87
2023-01-20T06:16:54.020Z,9.00
2023-01-20T06:19:41.154Z,13.17
2023-01-20T06:22:28.612Z,10.47
2023-01-20T06:25:16.505Z,9.63
2023-01-20T06:28:03.610Z,10.77
2023-01-20T06:30:52.216Z,14.27
2023-01-20T06:33:39.609Z,13.03
2023-01-20T06:36:27.016Z,12.63
2023-01-20T06:39:14.159Z,14.10
2023-01-20T06:42:02.089Z,13.20
2023-01-20T06:44:49.354Z,15.57
2023-01-20T06:47:37.994Z,10.60
2023-01-20T06:50:25.261Z,10.63
2023-01-20T06:53:12.590Z,14.27
2023-01-20T06:56:01.595Z,10.73
2023-01-20T06:58:48.947Z,14.77
2023-01-20T07:01:35.950Z,10.13
2023-01-20T07:04:24.374Z,10.97
2023-01-20T07:07:13.821Z,13.00
2023-01-20T07:10:01.199Z,9.93
2023-01-20T07:12:48.281Z,11.80
2023-01-20T07:15:35.466Z,12.57
2023-01-20T07:18:22.542Z,11.13
2023-01-20T07:21:12.541Z,11.00
2023-01-20T07:24:02.460Z,13.77
2023-01-20T07:26:49.495Z,12.17
2023-01-20T07:29:38.055Z,12.67
2023-01-20T07:32:25.095Z,11.80
2023-01-20T07:35:13.013Z,10.47
2023-01-20T07:38:01.803Z,10.50
2023-01-20T07:40:49.273Z,9.67
2023-01-20T07:43:36.662Z,15.13
2023-01-20T07:46:24.036Z,11.57
2023-01-20T07:49:12.921Z,13.23
2023-01-20T07:52:00.346Z,13.97
2023-01-20T07:54:49.058Z,9.77
2023-01-20T07:57:36.061Z,11.63
2023-01-20T08:00:24.886Z,10.50
2023-01-20T08:03:12.767Z,10.43
2023-01-20T08:06:03.644Z,9.57
2023-01-20T08:08:51.320Z,7.80
2023-01-20T08:11:39.949Z,7.60
2023-01-20T08:14:27.413Z,7.53
2023-01-20T08:17:14.779Z,8.37
2023-01-20T08:20:02.172Z,10.33
2023-01-20T08:22:49.581Z,10.53
2023-01-20T08:25:36.906Z,11.47
2023-01-20T08:28:25.500Z,12.83
2023-01-20T08:31:15.418Z,10.30
2023-01-20T08:34:02.624Z,10.37
2023-01-20T08:36:50.221Z,8.87
2023-01-20T08:39:37.391Z,10.20
2023-01-20T08:42:24.462Z,10.17
2023-01-20T08:45:13.716Z,9.80
2023-01-20T08:48:01.148Z,11.17
2023-01-20T08:50:48.197Z,9.60
2023-01-20T08:53:35.790Z,10.47
2023-01-20T08:56:23.918Z,9.40
2023-01-20T08:59:12.462Z,10.13
2023-01-20T09:02:00.920Z,13.93
2023-01-20T09:04:50.147Z,17.00
2023-01-20T09:07:37.428Z,17.80
2023-01-20T09:10:24.933Z,12.33
2023-01-20T09:13:12.221Z,12.00
2023-01-20T09:15:59.164Z,14.17
2023-01-20T09:18:47.810Z,14.83
2023-01-20T09:21:35.030Z,11.33
2023-01-20T09:24:22.599Z,11.87
2023-01-20T09:27:09.919Z,12.57
2023-01-20T09:29:56.882Z,13.60
2023-01-20T09:32:43.977Z,12.20
2023-01-20T09:35:32.332Z,10.77
2023-01-20T09:38:37.145Z,12.23
2023-01-20T09:41:47.599Z,11.70
2023-01-20T09:44:53.678Z,12.53
2023-01-20T09:47:47.988Z,12.20
2023-01-20T09:51:05.413Z,11.80
2023-01-20T09:54:00.079Z,11.40
2023-01-20T09:56:50.934Z,10.97
2023-01-20T09:59:43.444Z,11.03
2023-01-20T10:02:35.633Z,11.47
2023-01-20T10:05:32.973Z,11.67
2023-01-20T10:08:28.158Z,11.33
2023-01-20T10:11:19.833Z,10.83
2023-01-20T10:14:17.090Z,11.83
2023-01-20T10:17:13.870Z,9.77
2023-01-20T10:20:08.065Z,10.53
2023-01-20T10:23:02.598Z,14.10
2023-01-20T10:26:00.426Z,12.60
2023-01-20T10:28:53.204Z,11.73
2023-01-20T10:31:46.966Z,12.07
2023-01-20T10:34:42.925Z,12.10
2023-01-20T10:37:32.970Z,12.17
2023-01-20T10:40:35.095Z,11.30
2023-01-20T10:43:24.266Z,11.40
2023-01-20T10:46:43.599Z,11.17
2023-01-20T10:49:49.519Z,13.03
2023-01-20T10:52:55.206Z,12.63
2023-01-20T10:55:58.315Z,12.00
2023-01-20T10:58:47.713Z,12.90
2023-01-20T11:01:36.682Z,12.67
2023-01-20T11:04:24.229Z,12.43
2023-01-20T11:07:17.683Z,13.90
2023-01-20T11:10:17.062Z,12.50
2023-01-20T11:13:05.092Z,15.03
2023-01-20T11:15:57.875Z,11.37
2023-01-20T11:18:56.701Z,12.37
2023-01-20T11:21:43.947Z,12.17
2023-01-20T11:24:43.839Z,11.60
2023-01-20T11:27:36.654Z,12.37
2023-01-20T11:30:30.404Z,17.43
2023-01-20T11:33:23.404Z,12.20
2023-01-20T11:36:19.932Z,11.87
2023-01-20T11:39:25.716Z,11.50
2023-01-20T11:42:17.622Z,11.10
2023-01-20T11:45:20.908Z,11.30
2023-01-20T11:48:21.731Z,13.03
2023-01-20T11:51:22.227Z,12.70
2023-01-20T11:54:15.629Z,14.27
2023-01-20T11:57:07.653Z,15.63
2023-01-20T11:59:54.927Z,12.93
2023-01-20T12:02:42.226Z,13.37
2023-01-20T12:05:40.653Z,13.33
2023-01-20T12:08:35.402Z,14.43
2023-01-20T12:11:29.012Z,14.53
2023-01-20T12:14:25.447Z,11.07
2023-01-20T12:17:22.344Z,13.10
2023-01-20T12:20:17.819Z,13.43
2023-01-20T12:23:21.483Z,11.60
2023-01-20T12:26:10.571Z,12.53
2023-01-20T12:29:03.351Z,11.80
2023-01-20T12:31:51.017Z,13.60
2023-01-20T12:34:42.643Z,12.47
2023-01-20T12:37:40.451Z,13.00
2023-01-20T12:40:41.847Z,13.50
2023-01-20T12:43:51.087Z,11.60
2023-01-20T12:46:43.575Z,13.33
2023-01-20T12:49:53.224Z,18.27
2023-01-20T12:52:53.452Z,13.70
2023-01-20T12:55:57.178Z,12.17
2023-01-20T12:58:56.562Z,10.57
2023-01-20T13:02:00.409Z,8.70
2023-01-20T13:05:15.411Z,10.10
2023-01-20T13:08:16.659Z,8.70
2023-01-20T13:11:18.102Z,8.57
2023-01-20T13:14:15.627Z,7.33
2023-01-20T13:17:09.664Z,7.90
2023-01-20T13:20:00.813Z,8.47
2023-01-20T13:22:48.151Z,7.10
2023-01-20T13:25:36.387Z,6.53
2023-01-20T13:28:28.875Z,6.40
2023-01-20T13:31:48.936Z,6.33
2023-01-20T13:34:40.849Z,6.70
2023-01-20T13:37:32.051Z,6.37
2023-01-20T13:40:56.407Z,6.93
2023-01-20T13:43:54.237Z,11.23
2023-01-20T13:46:50.112Z,8.77
2023-01-20T13:49:54.575Z,8.67
2023-01-20T13:53:30.347Z,10.87
2023-01-20T13:56:32.893Z,9.37
2023-01-20T13:59:21.307Z,8.97
2023-01-20T14:02:18.728Z,7.80
2023-01-20T14:05:20.810Z,9.47
2023-01-20T14:08:15.259Z,11.77
2023-01-20T14:11:13.531Z,10.53
2023-01-20T14:14:05.453Z,9.73
2023-01-20T14:16:54.593Z,9.30
2023-01-20T14:19:41.697Z,8.53
2023-01-20T14:22:32.215Z,8.33
2023-01-20T14:25:26.448Z,7.53
2023-01-20T14:28:20.872Z,9.30
2023-01-20T14:31:22.139Z,7.70
2023-01-20T14:34:30.433Z,7.33
2023-01-20T14:37:29.040Z,8.87
2023-01-20T14:40:25.533Z,8.00
2023-01-20T14:43:19.573Z,9.20
2023-01-20T14:46:07.327Z,7.93
2023-01-20T14:48:56.229Z,7.83
2023-01-20T14:51:46.656Z,9.43
2023-01-20T14:54:44.572Z,11.57
2023-01-20T14:57:33.784Z,11.53
2023-01-20T15:00:27.394Z,10.57
2023-01-20T15:03:20.638Z,8.93
2023-01-20T15:06:21.161Z,7.20
2023-01-20T15:09:29.806Z,7.97
2023-01-20T15:12:36.011Z,5.97
2023-01-20T15:15:31.665Z,5.60
2023-01-20T15:18:23.122Z,5.83
2023-01-20T15:21:24.181Z,7.23
2023-01-20T15:24:14.919Z,8.20
2023-01-20T15:27:18.625Z,10.93
2023-01-20T15:30:18.821Z,10.33
2023-01-20T15:33:09.725Z,13.23
2023-01-20T15:35:59.680Z,31.40
2023-01-20T15:38:46.992Z,19.90
2023-01-20T15:41:34.035Z,11.53
2023-01-20T15:44:22.818Z,8.87
2023-01-20T15:47:21.697Z,11.93
2023-01-20T15:50:17.365Z,9.30
2023-01-20T15:53:06.403Z,10.97
2023-01-20T15:55:53.840Z,11.00
2023-01-20T15:58:41.276Z,9.63
2023-01-20T16:01:30.442Z,11.50
2023-01-20T16:04:17.485Z,18.03
2023-01-20T16:07:04.601Z,18.77
2023-01-20T16:09:52.035Z,15.57
2023-01-20T16:12:39.044Z,14.03
2023-01-20T16:15:26.196Z,14.30
2023-01-20T16:18:17.520Z,8.60
2023-01-20T16:21:04.904Z,8.20
2023-01-20T16:23:52.387Z,8.03
2023-01-20T16:26:39.776Z,7.33
2023-01-20T16:29:27.296Z,7.97
2023-01-20T16:32:17.131Z,9.23
2023-01-20T16:35:07.870Z,9.67
2023-01-20T16:37:55.019Z,15.07
2023-01-20T16:40:48.377Z,23.47
2023-01-20T16:43:36.006Z,14.40
2023-01-20T16:46:25.843Z,14.23
2023-01-20T16:49:13.281Z,13.60
2023-01-20T16:52:02.006Z,10.87
2023-01-20T16:54:49.294Z,9.03
2023-01-20T16:57:36.562Z,9.37
2023-01-20T17:00:24.253Z,8.73
2023-01-20T17:03:11.371Z,9.97
2023-01-20T17:05:59.910Z,8.77
2023-01-20T17:08:51.161Z,9.67
2023-01-20T17:11:41.024Z,8.80
2023-01-20T17:14:28.437Z,8.20
2023-01-20T17:17:15.632Z,8.10
2023-01-20T17:20:02.660Z,8.93
2023-01-20T17:22:52.851Z,8.93
2023-01-20T17:25:41.849Z,9.90
2023-01-20T17:28:29.447Z,11.50
2023-01-20T17:31:16.638Z,10.50
2023-01-20T17:34:04.542Z,18.13
2023-01-20T17:36:51.910Z,16.77
2023-01-20T17:39:39.013Z,18.53
2023-01-20T17:42:27.421Z,14.17
2023-01-20T17:45:14.590Z,10.50
2023-01-20T17:48:04.282Z,9.40
2023-01-20T17:50:51.925Z,10.60
2023-01-20T17:53:38.915Z,9.83
2023-01-20T17:56:27.203Z,10.73
2023-01-20T17:59:15.838Z,8.63
2023-01-20T18:02:03.172Z,9.20
2023-01-20T18:04:50.186Z,8.70
2023-01-20T18:07:37.864Z,9.97
2023-01-20T18:10:25.012Z,10.30
2023-01-20T18:13:11.894Z,9.37
2023-01-20T18:16:05.508Z,14.03
2023-01-20T18:18:53.624Z,11.57
2023-01-20T18:21:42.635Z,9.47
2023-01-20T18:24:30.165Z,10.20
2023-01-20T18:27:18.823Z,19.47
2023-01-20T18:30:10.493Z,15.67
2023-01-20T18:32:59.426Z,10.17
2023-01-20T18:35:46.680Z,8.03
2023-01-20T18:38:33.863Z,8.20
2023-01-20T18:41:22.189Z,8.97
2023-01-20T18:44:09.768Z,8.30
2023-01-20T18:46:57.099Z,7.13
2023-01-20T18:49:45.950Z,7.13
2023-01-20T18:52:32.889Z,8.00
2023-01-20T18:55:19.949Z,10.50
2023-01-20T18:58:08.538Z,9.60
2023-01-20T19:00:55.800Z,9.37
2023-01-20T19:03:43.085Z,7.03
2023-01-20T19:06:34.436Z,5.97
2023-01-20T19:09:21.533Z,5.40
2023-01-20T19:12:09.041Z,5.93
2023-01-20T19:14:56.213Z,7.60
2023-01-20T19:17:43.319Z,7.17
2023-01-20T19:20:30.472Z,5.37
2023-01-20T19:23:19.141Z,5.93
2023-01-20T19:26:08.522Z,4.40
2023-01-20T19:29:00.049Z,4.50
2023-01-20T19:31:47.414Z,4.83
2023-01-20T19:34:34.657Z,4.07
2023-01-20T19:37:21.793Z,4.00
2023-01-20T19:40:12.363Z,3.70
2023-01-20T19:43:00.800Z,3.77
2023-01-20T19:45:47.982Z,4.03
2023-01-20T19:48:35.723Z,4.07
2023-01-20T19:51:23.390Z,4.10
2023-01-20T19:54:14.415Z,4.27
2023-01-20T19:57:03.165Z,4.00
2023-01-20T19:59:51.954Z,3.80
2023-01-20T20:02:40.956Z,4.03
2023-01-20T20:05:28.134Z,3.83
2023-01-20T20:08:15.149Z,3.90
2023-01-20T20:11:02.351Z,4.13
2023-01-20T20:13:54.758Z,3.83
2023-01-20T20:16:42.633Z,4.37
2023-01-20T20:19:29.626Z,4.37
2023-01-20T20:22:16.850Z,4.27
2023-01-20T20:25:05.769Z,3.73
2023-01-20T20:27:52.907Z,4.00
2023-01-20T20:30:42.234Z,4.27
2023-01-20T20:33:29.255Z,4.07
2023-01-20T20:36:17.005Z,4.07
2023-01-20T20:39:05.384Z,4.37
2023-01-20T20:41:52.329Z,4.93
2023-01-20T20:44:40.276Z,4.07
2023-01-20T20:47:29.145Z,4.23
2023-01-20T20:50:17.261Z,4.33
2023-01-20T20:53:04.413Z,4.93
2023-01-20T20:55:55.308Z,4.27
2023-01-20T20:59:00.109Z,4.43
2023-01-20T21:01:48.429Z,4.60
2023-01-20T21:04:36.746Z,5.97
2023-01-20T21:07:24.194Z,4.13
2023-01-20T21:10:15.631Z,4.80
2023-01-20T21:13:06.957Z,4.97
2023-01-20T21:15:59.603Z,4.50
2023-01-20T21:18:47.263Z,5.33
2023-01-20T21:21:35.995Z,4.47
2023-01-20T21:24:26.126Z,4.50
2023-01-20T21:27:13.463Z,4.27
2023-01-20T21:30:00.677Z,4.60
2023-01-20T21:32:47.774Z,4.33
2023-01-20T21:35:38.812Z,5.70
2023-01-20T21:38:27.676Z,5.10
2023-01-20T21:41:16.442Z,4.63
2023-01-20T21:44:21.041Z,4.20
2023-01-20T21:47:08.864Z,3.37
2023-01-20T21:50:13.659Z,4.07
2023-01-20T21:53:00.528Z,3.67
2023-01-20T21:55:48.833Z,3.43
2023-01-20T21:58:36.247Z,4.97
2023-01-20T22:01:23.663Z,3.50
2023-01-20T22:04:10.806Z,3.40
2023-01-20T22:06:58.232Z,4.80
2023-01-20T22:09:45.225Z,3.67
2023-01-20T22:12:34.738Z,3.80
2023-01-20T22:15:22.049Z,3.27
2023-01-20T22:18:09.097Z,3.70
2023-01-20T22:20:56.250Z,3.03
2023-01-20T22:23:43.382Z,3.27
2023-01-20T22:26:30.480Z,2.80
2023-01-20T22:29:19.466Z,2.90
2023-01-20T22:32:06.869Z,2.50
2023-01-20T22:34:54.716Z,2.60
2023-01-20T22:37:41.826Z,2.37
2023-01-20T22:40:28.950Z,2.10
2023-01-20T22:43:16.222Z,2.53
2023-01-20T22:46:05.631Z,2.30
2023-01-20T22:48:52.841Z,2.27
2023-01-20T22:51:40.314Z,2.43
2023-01-20T22:54:27.511Z,1.90
2023-01-20T22:57:14.556Z,1.90
2023-01-20T23:00:01.776Z,1.70
2023-01-20T23:02:50.422Z,2.20
2023-01-20T23:05:39.575Z,1.83
2023-01-20T23:08:30.082Z,1.83
2023-01-20T23:11:20.260Z,2.07
2023-01-20T23:14:10.574Z,2.13
2023-01-20T23:16:58.248Z,2.00
2023-01-20T23:19:46.642Z,2.30
2023-01-20T23:22:34.009Z,2.87
2023-01-20T23:25:21.357Z,1.97
2023-01-20T23:28:08.536Z,1.70
2023-01-20T23:31:02.540Z,1.90
2023-01-20T23:33:50.529Z,1.80
2023-01-20T23:36:39.203Z,2.20
2023-01-20T23:39:26.714Z,3.43
2023-01-20T23:42:13.819Z,3.07
2023-01-20T23:45:01.030Z,3.47
2023-01-20T23:47:47.959Z,3.23
2023-01-20T23:50:35.995Z,3.20
2023-01-20T23:53:24.531Z,3.03
2023-01-20T23:56:14.482Z,2.77
2023-01-20T23:59:01.779Z,2.90
